1994 CECILIA (1993345S08083)


On this page: IBTrACS data - Map and Plots - Positions - Intensities - Original source data

Summary

Start Dec 11
End Dec 21
Basin SI
LMI 85 kt
Sources jtwc_sh
reunion
neumann
In WMO? Yes
Previous storm 1993 MANNY (WP)
Previous in basin 1994 BETTINA (SI)
Concurrent storms 1993 MANNY (WP)
1994 CECILIA (SI)
1994 NAOMI (SI)
1993 NELL (WP)
1993 MISSING (NI)
Next in basin 1994 NAOMI (SI)
Next storm 1994 NAOMI (SI)

top of page IBTrACS Data: File Access

No storm imagery available

top of page Plots:

Map of storm track will not appear if FTP is down
Time series of cyclone Maximum Sustained Wind will not appear if FTP is down
Time series of cyclone Minimum Central Pressure will not appear if FTP is down

top of page Track Data:Position

jtwc_sh reunion neumann
Date Lat Lon Lat Lon Lat Lon
1993-12-11 00:00:00 -8.4 82.6 -8.4 82.6
1993-12-11 06:00:00 -9.2 82.5 -9.2 82.5
1993-12-11 12:00:00 -10.0 82.3 -10.0 82.3
1993-12-11 18:00:00 -10.8 81.9 -10.8 81.9
1993-12-12 00:00:00 -11.6 81.4 -11.7 81.2 -11.6 81.4
1993-12-12 06:00:00 -12.4 80.9 -12.2 81.5 -12.4 80.9
1993-12-12 12:00:00 -13.3 80.2 -12.7 81.3 -13.3 80.2
1993-12-12 18:00:00 -14.1 79.4 -13.5 80.4 -14.1 79.4
1993-12-13 00:00:00 -14.5 78.4 -14.1 79.3 -14.5 78.4
1993-12-13 06:00:00 -14.9 77.5 -14.7 78.2 -14.9 77.5
1993-12-13 12:00:00 -15.4 76.4 -15.2 77.2 -15.4 76.4
1993-12-13 18:00:00 -15.8 75.2 -15.2 76.1 -15.8 75.2
1993-12-14 00:00:00 -15.8 74.1 -15.1 74.8 -15.8 74.1
1993-12-14 06:00:00 -15.7 73.2 -15.3 73.4 -15.7 73.2
1993-12-14 12:00:00 -15.6 72.4 -15.5 72.1 -15.6 72.4
1993-12-14 18:00:00 -15.4 71.4 -15.7 70.8 -15.4 71.4
1993-12-15 00:00:00 -15.2 70.0 -15.9 69.6 -15.2 70.0
1993-12-15 06:00:00 -15.3 68.8 -15.9 68.4 -15.3 68.8
1993-12-15 12:00:00 -15.4 67.7 -15.8 67.6 -15.4 67.7
1993-12-15 18:00:00 -15.4 66.7 -15.5 66.5 -15.4 66.7
1993-12-16 00:00:00 -15.3 65.7 -15.3 65.4 -15.3 65.7
1993-12-16 06:00:00 -15.4 64.7 -15.2 64.7 -15.4 64.7
1993-12-16 12:00:00 -15.5 63.9 -15.3 63.9 -15.5 63.9
1993-12-16 18:00:00 -15.7 63.1 -15.5 63.2 -15.7 63.1
1993-12-17 00:00:00 -15.9 62.4 -15.9 62.6 -15.9 62.4
jtwc_sh reunion neumann
1993-12-17 06:00:00 -16.2 61.7 -16.3 61.8 -16.2 61.7
1993-12-17 12:00:00 -16.5 61.0 -16.7 61.1 -16.5 61.0
1993-12-17 18:00:00 -16.8 60.5 -16.9 60.7 -16.8 60.5
1993-12-18 00:00:00 -17.2 60.1 -17.1 60.3 -17.2 60.1
1993-12-18 06:00:00 -17.6 59.7 -17.4 59.8 -17.6 59.7
1993-12-18 12:00:00 -17.8 59.2 -17.6 59.2 -17.8 59.2
1993-12-18 18:00:00 -18.0 58.6 -17.8 58.7 -18.0 58.6
1993-12-19 00:00:00 -18.2 58.0 -18.0 58.1 -18.2 58.0
1993-12-19 06:00:00 -18.4 57.3 -18.4 57.5 -18.4 57.3
1993-12-19 12:00:00 -18.7 56.6 -18.9 56.9 -18.7 56.6
1993-12-19 18:00:00 -19.2 55.8 -19.2 55.9 -19.2 55.8
1993-12-20 00:00:00 -19.5 55.1 -19.4 55.0 -19.5 55.1
1993-12-20 06:00:00 -19.8 54.6 -19.6 54.7 -19.8 54.6
1993-12-20 12:00:00 -20.2 54.4 -20.4 54.5 -20.2 54.4
1993-12-20 18:00:00 -20.6 54.3 -20.8 54.4 -20.6 54.3
1993-12-21 00:00:00 -21.0 54.0 -21.0 54.6 -21.0 54.0
1993-12-21 06:00:00 -21.6 54.0 -21.6 54.0
1993-12-21 12:00:00 -22.8 54.7 -22.8 54.7

top of pageTrack Data:Intensity

jtwc_sh reunion neumann
Date Wind Pres Wind Pres Wind Pres
1993-12-11 00:00:00 15. 15.
1993-12-11 06:00:00 15. 15.
1993-12-11 12:00:00 15. 15.
1993-12-11 18:00:00 20. 20.
1993-12-12 00:00:00 20. 25. 1000. 20.
1993-12-12 06:00:00 25. 28. 998. 25.
1993-12-12 12:00:00 25. 30. 995. 25.
1993-12-12 18:00:00 30. 30. 995. 30.
1993-12-13 00:00:00 35. 35. 992. 35.
1993-12-13 06:00:00 35. 35. 992. 35.
1993-12-13 12:00:00 35. 35. 992. 35.
1993-12-13 18:00:00 35. 35. 992. 35.
1993-12-14 00:00:00 35. 30. 995. 35.
1993-12-14 06:00:00 40. 28. 997. 40.
1993-12-14 12:00:00 40. 30. 995. 40.
1993-12-14 18:00:00 45. 30. 995. 45.
1993-12-15 00:00:00 55. 35. 992. 55.
1993-12-15 06:00:00 55. 35. 990. 55.
1993-12-15 12:00:00 55. 40. 985. 55.
1993-12-15 18:00:00 60. 40. 985. 60.
1993-12-16 00:00:00 60. 45. 982. 60.
1993-12-16 06:00:00 60. 45. 982. 60.
1993-12-16 12:00:00 65. 50. 977. 65.
1993-12-16 18:00:00 65. 50. 977. 65.
1993-12-17 00:00:00 70. 55. 975. 70.
jtwc_sh reunion neumann
1993-12-17 06:00:00 75. 55. 975. 75.
1993-12-17 12:00:00 80. 55. 975. 80.
1993-12-17 18:00:00 80. 55. 972. 80.
1993-12-18 00:00:00 85. 55. 972. 85.
1993-12-18 06:00:00 80. 55. 972. 80.
1993-12-18 12:00:00 70. 55. 975. 70.
1993-12-18 18:00:00 60. 50. 980. 60.
1993-12-19 00:00:00 50. 45. 985. 50.
1993-12-19 06:00:00 45. 40. 990. 45.
1993-12-19 12:00:00 40. 35. 992. 40.
1993-12-19 18:00:00 40. 30. 997. 40.
1993-12-20 00:00:00 40. 30. 997. 40.
1993-12-20 06:00:00 25. 28. 998. 25.
1993-12-20 12:00:00 25. 28. 998. 25.
1993-12-20 18:00:00 30. 28. 998. 30.
1993-12-21 00:00:00 25. 25. 1000. 25.
1993-12-21 06:00:00 20. 20.
1993-12-21 12:00:00 20. 20.

top of page Links to source data

Source Source file Format
jtwc_sh bsh031994.txt ATCF
reunion WMO-Best-Tracks.txt:Line=16212:cecilia WMO (old format)
neumann tracks.sh:Storm=985:CECILIA:BSH031994:JTWC HURDAT